Time;durP1;ratioP1;P1;durP2;ratioP2;P2;SDS_P1;SDS_P2;PMS_P1;PMS_P2;Temp;Humidity;BMP_temperature;BMP_pressure;BME280_temperature;BME280_humidity;BME280_pressure;Samples;Min_cycle;Max_cycle;Signal;HPM_P1;HPM_P2
2022/05/27 00:00:08;;;;;;;5.78;1.63;;;16.20;99.90;;;;;;4972336;28;20041;-83
2022/05/27 00:02:35;;;;;;;5.57;1.13;;;16.20;99.90;;;;;;4983952;28;20043;-82
2022/05/27 00:05:01;;;;;;;6.70;1.23;;;16.20;99.90;;;;;;4997879;28;20380;-80
2022/05/27 00:07:28;;;;;;;5.32;1.48;;;16.20;99.90;;;;;;5010246;28;20631;-82
2022/05/27 00:09:54;;;;;;;6.93;1.10;;;16.20;99.90;;;;;;4977081;28;20022;-79
2022/05/27 00:12:21;;;;;;;6.88;1.48;;;16.20;99.90;;;;;;5026191;28;20029;-79
2022/05/27 00:14:47;;;;;;;5.65;1.10;;;16.20;99.90;;;;;;5038357;28;20029;-79
2022/05/27 00:17:14;;;;;;;6.72;1.20;;;16.10;99.90;;;;;;5004992;28;20040;-79
2022/05/27 00:19:41;;;;;;;6.72;1.52;;;16.10;99.90;;;;;;5009179;28;20056;-79
2022/05/27 00:22:08;;;;;;;6.50;1.40;;;16.10;99.90;;;;;;5026601;28;20112;-80
2022/05/27 00:24:36;;;;;;;10.30;2.15;;;16.00;99.90;;;;;;5026623;28;20499;-82
2022/05/27 00:27:04;;;;;;;5.80;1.50;;;16.00;99.90;;;;;;5036440;28;20041;-82
2022/05/27 00:29:30;;;;;;;9.55;1.40;;;16.00;99.90;;;;;;5026638;28;20044;-81
2022/05/27 00:31:57;;;;;;;8.02;2.40;;;15.90;99.90;;;;;;5009556;28;20040;-82
2022/05/27 00:34:23;;;;;;;8.48;2.25;;;15.90;99.90;;;;;;5028740;28;20499;-82
2022/05/27 00:36:49;;;;;;;9.20;1.63;;;15.80;99.90;;;;;;5009941;28;20041;-82
2022/05/27 00:39:16;;;;;;;6.93;2.17;;;15.70;99.90;;;;;;5026550;28;20397;-81
2022/05/27 00:41:48;;;;;;;5.68;1.42;;;15.60;99.90;;;;;;4994050;28;20025;-81
2022/05/27 00:44:15;;;;;;;7.60;1.60;;;15.40;99.90;;;;;;5028016;28;20037;-82
2022/05/27 00:47:20;;;;;;;5.75;2.05;;;15.30;99.90;;;;;;5027068;28;21142;-82
2022/05/27 00:51:17;;;;;;;6.43;2.05;;;15.10;99.90;;;;;;5002260;28;20041;-81
2022/05/27 00:54:01;;;;;;;6.50;1.17;;;14.90;99.90;;;;;;4995983;28;20045;-81
2022/05/27 01:01:43;;;;;;;1.88;0.60;;;14.60;99.90;;;;;;5053895;28;20110;-81
2022/05/27 01:05:13;;;;;;;1.98;0.50;;;14.40;99.90;;;;;;5032510;28;20389;-81
2022/05/27 01:09:04;;;;;;;3.80;0.68;;;14.30;99.90;;;;;;4967725;28;20037;-81
2022/05/27 01:11:47;;;;;;;2.80;0.80;;;14.30;99.90;;;;;;4972117;28;20038;-81
2022/05/27 01:15:10;;;;;;;2.85;0.70;;;14.30;99.90;;;;;;5006020;28;21034;-82
2022/05/27 01:18:04;;;;;;;3.78;0.95;;;14.30;99.90;;;;;;4984527;28;20055;-82
2022/05/27 01:21:39;;;;;;;4.18;1.20;;;14.40;99.90;;;;;;4964197;28;20054;-82
2022/05/27 01:29:50;;;;;;;3.40;0.82;;;14.30;99.90;;;;;;4967332;28;20053;-84
2022/05/27 01:33:02;;;;;;;3.92;0.93;;;14.20;99.90;;;;;;4954915;28;20035;-84
2022/05/27 01:36:38;;;;;;;1.90;0.70;;;14.10;99.90;;;;;;4925534;28;20481;-83
2022/05/27 01:39:48;;;;;;;3.55;0.80;;;14.10;99.90;;;;;;4931824;28;20435;-83
2022/05/27 01:43:22;;;;;;;2.55;0.60;;;14.10;99.90;;;;;;4941521;28;20071;-83
2022/05/27 01:46:58;;;;;;;2.67;0.80;;;14.10;99.90;;;;;;4908398;29;21853;-83
2022/05/27 01:50:16;;;;;;;2.88;0.70;;;14.00;99.90;;;;;;4914669;29;20509;-82
2022/05/27 01:54:00;;;;;;;5.82;1.10;;;14.00;99.90;;;;;;4936270;28;20055;-82
2022/05/27 02:18:14;;;;;;;3.05;1.10;;;14.00;99.90;;;;;;4909019;29;20044;-83
2022/05/27 02:21:44;;;;;;;3.00;0.90;;;14.00;99.90;;;;;;4926799;29;20046;-83
2022/05/27 02:25:15;;;;;;;5.45;1.23;;;13.90;99.90;;;;;;4932500;28;20482;-83
2022/05/27 02:29:03;;;;;;;6.78;1.20;;;14.00;99.90;;;;;;4949283;28;20030;-83
2022/05/27 02:32:37;;;;;;;7.60;1.40;;;14.00;99.90;;;;;;4916905;28;20046;-83
2022/05/27 02:35:38;;;;;;;5.40;1.33;;;14.00;99.90;;;;;;4899887;29;20067;-83
2022/05/27 02:38:27;;;;;;;6.07;1.30;;;13.90;99.90;;;;;;4946752;28;20407;-83
2022/05/27 02:41:17;;;;;;;3.92;1.10;;;13.90;99.90;;;;;;4937468;28;21933;-83
2022/05/27 02:44:15;;;;;;;5.82;1.55;;;13.90;99.90;;;;;;4909396;29;20047;-83
2022/05/27 02:47:34;;;;;;;3.60;1.00;;;13.80;99.90;;;;;;4953507;28;20062;-84
2022/05/27 02:50:51;;;;;;;3.95;1.23;;;13.80;99.90;;;;;;4966852;28;20050;-83
2022/05/27 02:54:11;;;;;;;4.90;1.33;;;13.70;99.90;;;;;;4956429;28;20406;-84
2022/05/27 02:57:36;;;;;;;3.80;1.00;;;13.60;99.90;;;;;;4988569;28;20189;-83
2022/05/27 03:00:48;;;;;;;4.47;1.38;;;13.50;99.90;;;;;;5016838;28;20064;-84
2022/05/27 03:03:52;;;;;;;4.95;1.52;;;13.40;99.90;;;;;;5005506;28;20061;-84
2022/05/27 03:15:20;;;;;;;7.50;1.40;;;13.30;99.90;;;;;;4962024;28;20159;-83
2022/05/27 03:18:56;;;;;;;5.50;1.30;;;13.30;99.90;;;;;;4942854;28;20062;-84
2022/05/27 03:22:38;;;;;;;2.97;1.27;;;13.30;99.90;;;;;;4905657;29;20032;-84
2022/05/27 03:25:46;;;;;;;4.38;1.20;;;13.40;99.90;;;;;;4893613;29;20055;-84
2022/05/27 03:29:07;;;;;;;4.60;1.10;;;13.40;99.90;;;;;;4910424;28;20054;-84
2022/05/27 03:32:13;;;;;;;8.00;1.80;;;13.40;99.90;;;;;;4923038;28;20032;-84
2022/05/27 03:34:59;;;;;;;5.20;1.25;;;13.30;99.90;;;;;;4937833;28;20043;-84
2022/05/27 03:38:50;;;;;;;7.05;1.02;;;13.30;99.90;;;;;;4921386;28;20047;-84
2022/05/27 03:42:24;;;;;;;3.88;1.65;;;13.30;99.90;;;;;;4947571;28;20050;-84
2022/05/27 03:46:08;;;;;;;2.97;1.10;;;13.30;99.90;;;;;;4968775;28;20072;-84
2022/05/27 03:49:48;;;;;;;4.55;1.10;;;13.40;99.90;;;;;;5003663;28;20038;-84
2022/05/27 03:53:07;;;;;;;7.88;1.70;;;13.40;99.90;;;;;;4974580;28;20038;-84
2022/05/27 03:55:34;;;;;;;3.05;1.60;;;13.30;99.90;;;;;;5001672;28;20038;-85
2022/05/27 03:58:27;;;;;;;7.25;1.13;;;13.20;99.90;;;;;;4991344;28;20601;-84
2022/05/27 04:01:58;;;;;;;3.42;1.08;;;13.20;99.90;;;;;;4985087;28;20046;-84
2022/05/27 04:04:56;;;;;;;4.18;1.55;;;13.10;99.90;;;;;;4985874;28;20053;-84
2022/05/27 04:08:46;;;;;;;8.88;2.15;;;13.10;99.90;;;;;;4905282;29;20476;-84
2022/05/27 04:11:28;;;;;;;6.45;1.30;;;13.00;99.90;;;;;;4893184;29;20048;-83
2022/05/27 04:14:20;;;;;;;8.35;1.70;;;13.10;99.90;;;;;;4893130;29;20043;-84
2022/05/27 04:17:27;;;;;;;7.25;1.67;;;13.10;99.90;;;;;;4903695;28;20050;-84
2022/05/27 04:32:38;;;;;;;5.90;1.38;;;13.10;99.90;;;;;;4900919;29;20044;-84
2022/05/27 04:35:06;;;;;;;3.50;1.08;;;13.20;99.90;;;;;;4900108;29;20060;-84
2022/05/27 04:38:22;;;;;;;5.68;1.42;;;13.30;99.90;;;;;;4938104;28;20086;-84
2022/05/27 04:41:06;;;;;;;8.55;1.40;;;13.40;99.90;;;;;;4955580;28;20039;-84
2022/05/27 04:44:29;;;;;;;9.75;1.92;;;13.40;99.90;;;;;;4972913;28;20050;-84
2022/05/27 04:47:15;;;;;;;4.75;1.35;;;13.50;99.90;;;;;;4983710;28;20483;-84
2022/05/27 04:59:17;;;;;;;6.28;1.42;;;13.70;99.90;;;;;;5010580;28;20190;-82
2022/05/27 05:02:18;;;;;;;5.32;1.20;;;13.90;99.90;;;;;;4982549;28;20050;-82
2022/05/27 05:05:19;;;;;;;6.10;1.20;;;14.00;99.90;;;;;;4983398;28;20038;-82
2022/05/27 05:08:24;;;;;;;5.68;1.35;;;14.10;99.90;;;;;;5011730;28;20038;-81
2022/05/27 05:12:25;;;;;;;7.35;1.52;;;14.20;99.90;;;;;;4989006;28;20484;-82
2022/05/27 05:15:30;;;;;;;8.52;1.70;;;14.30;99.90;;;;;;5031470;28;20032;-82
2022/05/27 05:22:07;;;;;;;6.00;1.40;;;14.50;99.90;;;;;;4933822;28;20043;-81
2022/05/27 05:25:47;;;;;;;11.93;1.95;;;14.70;99.90;;;;;;4934104;28;20058;-82
2022/05/27 05:29:48;;;;;;;8.45;1.95;;;14.80;99.90;;;;;;4928382;29;20047;-81
2022/05/27 05:46:04;;;;;;;;;;;;;;;;;;;;;
2022/05/27 05:49:49;;;;;;;7.35;1.70;;;15.50;99.90;;;;;;4764517;30;20051;-82
2022/05/27 05:53:05;;;;;;;10.55;2.00;;;15.70;99.90;;;;;;4765085;30;20055;-83
2022/05/27 05:56:21;;;;;;;6.97;1.63;;;15.80;99.90;;;;;;4774131;29;20039;-82
2022/05/27 06:12:43;;;;;;;9.52;2.28;;;16.60;99.90;;;;;;4814786;29;20508;-86
2022/05/27 06:24:01;;;;;;;6.05;1.45;;;17.00;99.90;;;;;;4850846;29;19920;-86
2022/05/27 06:27:13;;;;;;;6.00;1.45;;;17.20;99.90;;;;;;4891025;29;20040;-86
2022/05/27 06:35:14;;;;;;;8.07;1.63;;;16.90;99.90;;;;;;5012030;28;20040;-83
2022/05/27 06:37:42;;;;;;;5.25;1.33;;;16.90;99.90;;;;;;5005390;28;20722;-85
2022/05/27 06:40:11;;;;;;;7.18;0.93;;;17.00;99.90;;;;;;5024500;28;20049;-89
2022/05/27 06:42:51;;;;;;;8.73;1.83;;;17.00;99.90;;;;;;5009820;28;20397;-89
2022/05/27 06:46:06;;;;;;;9.45;1.50;;;17.00;99.90;;;;;;5014771;28;20041;-89
2022/05/27 06:56:52;;;;;;;6.72;1.17;;;17.00;99.90;;;;;;5026162;28;20037;-88
2022/05/27 07:00:00;;;;;;;6.28;1.13;;;16.90;99.90;;;;;;5027363;28;20052;-88
2022/05/27 07:03:07;;;;;;;9.63;1.50;;;16.90;99.90;;;;;;5027718;28;20033;-88
2022/05/27 07:06:52;;;;;;;9.00;1.65;;;17.00;99.90;;;;;;4983893;28;20049;-88
2022/05/27 07:10:00;;;;;;;7.85;1.67;;;16.90;99.90;;;;;;4944025;28;20049;-90
2022/05/27 07:12:42;;;;;;;5.80;1.05;;;16.80;99.90;;;;;;4961370;28;20073;-89
2022/05/27 07:19:48;;;;;;;6.78;1.10;;;16.70;99.90;;;;;;4989397;28;20050;-87
2022/05/27 07:22:45;;;;;;;9.52;1.23;;;16.60;99.90;;;;;;4958749;28;20529;-87
2022/05/27 07:26:09;;;;;;;7.70;1.00;;;16.80;99.90;;;;;;4960685;28;20046;-87
2022/05/27 07:28:46;;;;;;;5.80;1.00;;;16.90;99.90;;;;;;4959218;28;20550;-87
2022/05/27 07:31:17;;;;;;;6.20;1.05;;;16.80;99.90;;;;;;4966087;28;20371;-87
2022/05/27 07:33:46;;;;;;;9.50;1.52;;;16.80;99.90;;;;;;4953214;28;20038;-87
2022/05/27 07:36:18;;;;;;;7.53;1.20;;;17.00;99.90;;;;;;4973952;28;20035;-87
2022/05/27 07:38:51;;;;;;;5.65;1.10;;;17.10;99.90;;;;;;5023831;28;20515;-85
2022/05/27 07:41:21;;;;;;;6.93;1.17;;;17.10;99.90;;;;;;5020984;28;20041;-85
2022/05/27 07:43:49;;;;;;;7.03;1.30;;;17.10;99.90;;;;;;5004794;28;20036;-85
2022/05/27 07:46:17;;;;;;;6.25;1.30;;;17.10;99.90;;;;;;5022198;28;20033;-84
2022/05/27 07:48:44;;;;;;;5.97;1.10;;;17.20;99.90;;;;;;5021711;28;20033;-84
2022/05/27 07:51:11;;;;;;;7.97;1.30;;;17.30;99.90;;;;;;5021554;28;20036;-86
2022/05/27 07:53:38;;;;;;;6.13;1.13;;;17.30;99.90;;;;;;5002127;28;20041;-83
2022/05/27 07:56:10;;;;;;;10.70;2.00;;;17.20;99.90;;;;;;5007967;28;20038;-82
2022/05/27 07:58:37;;;;;;;9.13;1.50;;;17.20;99.90;;;;;;5004283;28;20040;-83
2022/05/27 08:01:05;;;;;;;9.50;1.33;;;17.20;99.90;;;;;;5021700;28;20295;-83
2022/05/27 08:03:31;;;;;;;11.38;1.65;;;17.50;99.90;;;;;;5009840;28;20049;-83
2022/05/27 08:05:59;;;;;;;6.95;1.25;;;17.80;99.90;;;;;;5008032;28;20040;-83
2022/05/27 08:08:26;;;;;;;9.23;1.20;;;18.00;99.90;;;;;;5022541;28;20397;-82
2022/05/27 08:10:53;;;;;;;7.70;0.98;;;18.20;99.90;;;;;;5022514;28;20041;-82
2022/05/27 08:13:20;;;;;;;10.10;1.00;;;18.30;99.90;;;;;;5025491;28;20064;-79
2022/05/27 08:15:47;;;;;;;6.47;1.05;;;18.20;99.90;;;;;;5007547;28;20042;-82
2022/05/27 08:18:14;;;;;;;5.50;1.17;;;18.10;99.90;;;;;;4988755;28;20049;-84
2022/05/27 08:20:40;;;;;;;7.47;1.08;;;17.90;99.90;;;;;;5022097;28;20038;-84
2022/05/27 08:23:07;;;;;;;8.00;1.42;;;17.90;99.90;;;;;;5008591;28;20037;-83
2022/05/27 08:25:36;;;;;;;8.02;1.30;;;17.90;99.90;;;;;;5024491;28;20409;-83
2022/05/27 08:28:06;;;;;;;5.63;1.13;;;18.10;99.90;;;;;;5002826;28;20030;-81
2022/05/27 08:30:36;;;;;;;8.60;1.33;;;18.20;99.90;;;;;;5024054;28;20040;-81
2022/05/27 08:33:08;;;;;;;7.38;1.15;;;18.50;99.90;;;;;;5008710;28;20362;-88
2022/05/27 08:38:27;;;;;;;9.88;1.25;;;19.00;99.90;;;;;;5023388;28;20390;-80
2022/05/27 08:41:15;;;;;;;6.00;0.90;;;19.10;99.30;;;;;;5022531;28;20025;-83
2022/05/27 08:43:45;;;;;;;6.65;1.60;;;19.10;99.30;;;;;;5003528;28;20048;-83
2022/05/27 08:46:21;;;;;;;10.60;2.08;;;19.10;98.40;;;;;;5038397;28;20037;-83
2022/05/27 08:48:55;;;;;;;9.35;1.85;;;18.80;98.10;;;;;;5003454;28;20029;-83
2022/05/27 08:51:27;;;;;;;;;;;18.60;98.00;;;;;;5023438;28;20041;-84
2022/05/27 08:54:09;;;;;;;7.85;1.17;;;18.70;98.10;;;;;;5024444;28;19916;-82
2022/05/27 08:59:58;;;;;;;7.97;1.17;;;18.90;97.00;;;;;;5024598;28;20060;-83
2022/05/27 09:02:48;;;;;;;4.80;1.02;;;19.00;95.40;;;;;;5007140;28;20397;-85
2022/05/27 09:05:32;;;;;;;9.15;1.38;;;19.10;95.80;;;;;;5025392;28;20041;-83
2022/05/27 09:08:21;;;;;;;8.32;1.23;;;19.20;94.70;;;;;;5024746;28;20037;-82
2022/05/27 09:11:27;;;;;;;7.75;1.40;;;19.10;95.10;;;;;;5032027;28;20040;-81
2022/05/27 09:14:08;;;;;;;6.70;1.13;;;18.90;95.00;;;;;;5037574;28;20041;-81
2022/05/27 09:17:28;;;;;;;9.57;1.60;;;19.00;94.90;;;;;;5027578;28;20504;-86
2022/05/27 09:21:57;;;;;;;;;;;;;;;;;;;;;
2022/05/27 09:25:21;;;;;;;7.28;1.10;;;19.40;92.90;;;;;;5022706;28;20057;-85
2022/05/27 09:41:10;;;;;;;7.88;3.25;;;19.50;91.50;;;;;;4878351;29;21282;-82
2022/05/27 09:44:18;;;;;;;4.93;1.02;;;19.50;90.20;;;;;;4849848;29;20040;-82
2022/05/27 09:46:44;;;;;;;6.15;1.75;;;19.50;88.10;;;;;;4937648;28;20466;-86
2022/05/27 09:49:11;;;;;;;12.55;1.67;;;19.60;87.90;;;;;;4932082;28;20057;-87
2022/05/27 09:51:38;;;;;;;7.70;1.08;;;19.70;87.30;;;;;;5000007;28;20041;-81
2022/05/27 09:54:17;;;;;;;7.32;1.77;;;19.70;86.70;;;;;;4957868;28;20054;-82
2022/05/27 09:57:09;;;;;;;5.55;1.20;;;19.60;86.10;;;;;;4967955;28;20077;-85
2022/05/27 10:00:10;;;;;;;6.07;1.00;;;19.80;85.80;;;;;;5007439;28;20492;-86
2022/05/27 10:02:40;;;;;;;7.63;1.67;;;20.10;85.50;;;;;;5009788;28;20374;-83
2022/05/27 10:05:16;;;;;;;7.63;1.60;;;20.40;85.50;;;;;;5013367;28;20048;-86
2022/05/27 10:07:49;;;;;;;6.35;1.08;;;20.80;85.10;;;;;;4994076;28;20036;-84
2022/05/27 10:10:34;;;;;;;6.68;1.13;;;20.80;82.60;;;;;;5028050;28;20044;-84
2022/05/27 10:13:18;;;;;;;8.38;1.33;;;20.60;81.80;;;;;;5014398;28;20033;-84
2022/05/27 10:15:46;;;;;;;5.22;1.40;;;20.50;80.70;;;;;;5024611;28;20037;-83
2022/05/27 10:18:22;;;;;;;6.63;1.52;;;20.50;79.10;;;;;;5025854;28;20048;-85
2022/05/27 10:21:01;;;;;;;8.07;2.00;;;20.50;78.30;;;;;;5012140;28;20025;-84
2022/05/27 10:23:29;;;;;;;6.07;1.67;;;20.40;77.70;;;;;;5014566;28;20036;-83
2022/05/27 10:25:56;;;;;;;5.60;1.00;;;20.20;77.50;;;;;;5033109;28;20032;-84
2022/05/27 10:28:29;;;;;;;17.40;1.65;;;20.20;79.20;;;;;;5042277;28;20031;-84
2022/05/27 10:31:03;;;;;;;5.70;1.25;;;20.30;77.90;;;;;;5018769;28;20354;-82
2022/05/27 10:33:44;;;;;;;5.55;1.30;;;20.20;77.40;;;;;;5038128;28;20044;-83
2022/05/27 10:36:34;;;;;;;9.70;1.60;;;20.30;78.30;;;;;;5045026;28;20040;-82
2022/05/27 10:39:27;;;;;;;9.02;1.38;;;20.60;76.70;;;;;;5032116;28;20040;-82
2022/05/27 10:42:38;;;;;;;6.43;1.25;;;21.00;76.70;;;;;;5035553;28;20033;-84
2022/05/27 10:45:24;;;;;;;5.85;1.63;;;21.30;75.40;;;;;;5019473;28;20056;-81
2022/05/27 10:48:35;;;;;;;23.10;1.25;;;21.50;72.80;;;;;;5018558;28;20036;-84
2022/05/27 10:51:45;;;;;;;6.50;1.63;;;21.50;73.30;;;;;;5024233;28;20056;-81
2022/05/27 10:55:08;;;;;;;5.40;1.42;;;21.80;70.70;;;;;;5052268;28;20049;-85
2022/05/27 11:02:19;;;;;;;6.93;1.55;;;22.60;70.30;;;;;;4989778;28;20477;-83
2022/05/27 11:05:54;;;;;;;6.90;1.67;;;22.80;68.00;;;;;;4982481;28;20022;-86
2022/05/27 11:09:29;;;;;;;7.78;1.80;;;23.10;68.20;;;;;;4989574;28;20042;-85
2022/05/27 11:35:01;;;;;;;6.40;1.60;;;25.40;58.90;;;;;;4929110;28;20042;-84
2022/05/27 11:38:09;;;;;;;6.25;1.40;;;25.30;57.70;;;;;;5023300;28;20485;-83
2022/05/27 11:41:18;;;;;;;5.15;1.05;;;25.20;56.10;;;;;;5005638;28;20055;-83
2022/05/27 11:44:25;;;;;;;5.93;1.15;;;25.10;56.10;;;;;;5028948;28;20021;-83
2022/05/27 11:48:18;;;;;;;5.97;1.30;;;25.20;54.80;;;;;;5023087;28;20099;-84
2022/05/27 11:51:37;;;;;;;5.63;1.02;;;24.90;54.70;;;;;;5035996;28;20056;-83
2022/05/27 11:58:25;;;;;;;10.18;2.00;;;25.40;55.10;;;;;;5028102;28;20037;-82
2022/05/27 12:01:51;;;;;;;8.73;1.48;;;25.40;54.90;;;;;;5038940;28;20460;-88
2022/05/27 12:05:10;;;;;;;6.22;1.65;;;25.30;54.50;;;;;;5021622;28;20033;-87
2022/05/27 12:09:30;;;;;;;6.13;1.30;;;25.20;54.20;;;;;;5028616;28;20077;-87
2022/05/27 12:13:01;;;;;;;4.93;1.13;;;26.10;53.30;;;;;;4945994;28;20043;-87
2022/05/27 12:16:27;;;;;;;6.00;1.05;;;26.60;51.40;;;;;;4944904;28;20065;-87
2022/05/27 12:19:46;;;;;;;5.80;1.40;;;26.80;50.60;;;;;;4927291;28;20043;-87
2022/05/27 12:23:09;;;;;;;3.75;1.15;;;27.00;50.20;;;;;;4921219;29;20507;-87
2022/05/27 12:26:27;;;;;;;4.03;1.08;;;27.40;49.50;;;;;;4911723;29;20228;-87
2022/05/27 12:29:01;;;;;;;6.18;1.77;;;27.40;48.50;;;;;;4967177;28;20485;-87
2022/05/27 12:32:21;;;;;;;6.05;1.30;;;27.10;48.90;;;;;;5038291;28;20029;-88
2022/05/27 12:35:57;;;;;;;4.72;0.88;;;26.90;49.00;;;;;;4962840;28;20415;-87
2022/05/27 12:43:09;;;;;;;6.13;1.23;;;27.60;46.60;;;;;;4969298;28;20507;-89
2022/05/27 12:45:48;;;;;;;5.68;1.40;;;28.40;46.90;;;;;;4984858;28;20069;-85
2022/05/27 12:48:44;;;;;;;4.97;1.02;;;29.20;45.70;;;;;;4991863;28;20034;-84
2022/05/27 12:51:21;;;;;;;6.40;1.30;;;28.60;45.00;;;;;;4946389;28;20033;-87
2022/05/27 12:53:49;;;;;;;5.00;1.85;;;28.00;44.80;;;;;;4998149;28;20041;-87
2022/05/27 13:02:32;;;;;;;6.28;1.35;;;25.50;47.50;;;;;;4985767;28;20041;-86
2022/05/27 13:05:03;;;;;;;7.60;1.33;;;25.80;47.90;;;;;;4991641;28;20525;-86
2022/05/27 13:07:35;;;;;;;5.82;1.48;;;25.50;47.90;;;;;;5041696;28;20377;-86
2022/05/27 13:10:17;;;;;;;5.05;1.13;;;25.10;48.40;;;;;;5009919;28;20381;-86
2022/05/27 13:12:53;;;;;;;7.10;1.00;;;25.70;47.90;;;;;;5020799;28;20516;-85
2022/05/27 13:15:53;;;;;;;6.30;1.25;;;25.70;48.10;;;;;;5029798;28;20032;-85
2022/05/27 13:18:33;;;;;;;7.53;1.45;;;25.20;48.00;;;;;;5024360;28;20025;-86
2022/05/27 13:21:19;;;;;;;6.72;1.15;;;24.80;48.40;;;;;;5014809;28;20044;-86
2022/05/27 13:24:12;;;;;;;8.68;1.42;;;24.50;49.40;;;;;;4997608;28;20029;-86
2022/05/27 13:26:44;;;;;;;6.50;1.40;;;23.90;50.00;;;;;;5042266;28;20032;-87
2022/05/27 13:29:28;;;;;;;5.38;1.20;;;24.90;49.70;;;;;;5013242;28;20049;-80
2022/05/27 13:32:16;;;;;;;8.82;1.08;;;26.40;48.00;;;;;;5043866;28;20033;-85
2022/05/27 13:35:08;;;;;;;6.75;1.05;;;26.50;47.00;;;;;;5009358;28;20028;-85
2022/05/27 13:37:38;;;;;;;4.72;1.27;;;26.50;46.70;;;;;;5024943;28;20357;-85
2022/05/27 13:40:30;;;;;;;6.70;1.48;;;26.30;46.90;;;;;;5018579;28;20048;-86
2022/05/27 13:43:46;;;;;;;;;;;;;;;;;;;;;
2022/05/27 13:47:19;;;;;;;6.95;1.30;;;27.10;46.80;;;;;;4982215;28;20036;-86
2022/05/27 13:50:43;;;;;;;5.45;1.33;;;28.50;44.50;;;;;;5025671;28;20037;-86
2022/05/27 13:58:07;;;;;;;6.32;1.10;;;28.80;42.80;;;;;;4898279;28;20040;-85
2022/05/27 14:00:44;;;;;;;6.25;1.17;;;27.00;44.50;;;;;;4933826;28;20126;-86
2022/05/27 14:04:02;;;;;;;5.75;1.05;;;27.40;44.90;;;;;;4952726;28;20023;-86
2022/05/27 14:11:25;;;;;;;6.20;0.93;;;29.20;42.70;;;;;;4912005;29;20416;-85
2022/05/27 14:14:05;;;;;;;7.15;1.40;;;29.70;41.90;;;;;;4888067;29;20040;-86
2022/05/27 14:16:34;;;;;;;5.25;1.13;;;30.30;42.00;;;;;;4929205;28;20039;-84
2022/05/27 14:19:19;;;;;;;6.22;1.00;;;30.70;41.00;;;;;;4945513;28;20062;-85
2022/05/27 14:22:42;;;;;;;5.80;0.95;;;29.60;41.50;;;;;;4928336;28;20410;-85
2022/05/27 14:25:38;;;;;;;6.60;1.10;;;28.40;42.30;;;;;;4932843;28;20059;-86
2022/05/27 14:28:46;;;;;;;7.38;1.33;;;28.10;43.10;;;;;;4925488;28;20027;-85
2022/05/27 14:31:48;;;;;;;5.07;0.90;;;28.90;41.60;;;;;;4957830;28;20503;-84
2022/05/27 14:35:51;;;;;;;6.22;1.20;;;29.60;41.60;;;;;;4946885;28;20054;-84
2022/05/27 14:40:14;;;;;;;5.43;0.90;;;30.80;40.50;;;;;;4732823;30;20525;-84
2022/05/27 14:47:21;;;;;;;4.10;0.98;;;27.60;42.60;;;;;;4875257;29;20401;-84
2022/05/27 14:53:56;;;;;;;4.88;1.10;;;25.30;46.40;;;;;;4875383;29;20026;-84
2022/05/27 14:57:33;;;;;;;4.55;1.23;;;25.00;46.60;;;;;;4889622;29;20115;-84
2022/05/27 15:00:36;;;;;;;4.50;1.13;;;25.40;45.80;;;;;;4963723;28;20062;-83
2022/05/27 15:07:22;;;;;;;6.10;0.93;;;23.70;48.30;;;;;;4969685;28;20050;-83
2022/05/27 15:10:13;;;;;;;6.63;1.02;;;23.10;50.20;;;;;;4989717;28;20037;-81
2022/05/27 15:13:15;;;;;;;5.90;1.00;;;24.60;49.20;;;;;;4969871;28;20058;-82
2022/05/27 15:15:48;;;;;;;5.55;1.15;;;26.10;47.30;;;;;;4978736;28;20038;-82
2022/05/27 15:18:29;;;;;;;6.80;1.10;;;26.90;45.60;;;;;;4940351;28;20046;-82
2022/05/27 15:21:35;;;;;;;8.25;1.10;;;26.20;45.90;;;;;;4997276;28;20398;-82
2022/05/27 15:24:37;;;;;;;5.75;1.23;;;26.00;45.80;;;;;;4986127;28;20500;-87
2022/05/27 15:34:18;;;;;;;4.65;0.98;;;26.40;46.00;;;;;;4992620;28;20052;-82
2022/05/27 15:37:19;;;;;;;7.00;1.27;;;25.30;47.10;;;;;;4931190;28;20031;-80
2022/05/27 15:40:39;;;;;;;4.75;0.77;;;25.00;47.30;;;;;;4942578;28;20050;-81
2022/05/27 15:43:27;;;;;;;6.38;1.00;;;23.90;48.90;;;;;;4968089;28;20047;-81
2022/05/27 15:45:53;;;;;;;6.28;1.20;;;22.90;50.50;;;;;;4974771;28;20034;-83
2022/05/27 15:48:20;;;;;;;8.85;1.23;;;22.20;51.60;;;;;;4983293;28;20040;-82
2022/05/27 15:50:49;;;;;;;6.03;1.15;;;21.60;52.60;;;;;;5024974;28;20052;-84
2022/05/27 15:53:20;;;;;;;5.28;1.10;;;21.30;53.90;;;;;;5012055;28;20021;-83
2022/05/27 15:55:46;;;;;;;7.70;1.10;;;21.10;54.10;;;;;;5008415;28;20481;-85
2022/05/27 15:58:13;;;;;;;10.15;1.50;;;20.90;54.70;;;;;;4979979;28;20303;-83
2022/05/27 16:00:42;;;;;;;9.32;2.13;;;20.60;55.40;;;;;;5026214;28;20021;-84
2022/05/27 16:03:09;;;;;;;7.32;1.50;;;20.50;56.20;;;;;;5027173;28;20499;-84
2022/05/27 16:05:36;;;;;;;7.40;1.00;;;20.20;56.30;;;;;;5025583;28;20690;-84
2022/05/27 16:08:02;;;;;;;4.43;1.00;;;20.10;56.70;;;;;;5010147;28;20041;-84
2022/05/27 16:10:33;;;;;;;7.47;1.58;;;20.10;56.10;;;;;;5010885;28;20404;-83
2022/05/27 16:13:01;;;;;;;5.75;1.00;;;20.00;55.80;;;;;;4982316;28;20033;-82
2022/05/27 16:15:28;;;;;;;8.65;1.73;;;20.00;56.30;;;;;;5014841;28;20507;-83
2022/05/27 16:17:55;;;;;;;8.50;1.55;;;19.80;57.20;;;;;;5004384;28;20036;-83
2022/05/27 16:20:27;;;;;;;5.10;1.05;;;19.50;57.70;;;;;;5023786;28;20040;-83
2022/05/27 16:22:54;;;;;;;10.60;1.25;;;19.30;59.00;;;;;;5026599;28;20364;-80
2022/05/27 16:25:25;;;;;;;7.82;1.60;;;19.00;58.80;;;;;;5023985;28;20021;-82
2022/05/27 16:27:57;;;;;;;7.22;1.60;;;18.80;59.30;;;;;;4992035;28;20037;-82
2022/05/27 16:30:27;;;;;;;5.35;1.63;;;18.80;59.50;;;;;;5024932;28;20147;-82
2022/05/27 16:32:54;;;;;;;4.97;1.20;;;18.80;59.70;;;;;;5006816;28;20029;-83
2022/05/27 16:35:26;;;;;;;7.03;1.60;;;18.80;59.80;;;;;;5037950;28;20036;-78
2022/05/27 16:37:59;;;;;;;6.80;1.38;;;18.60;60.10;;;;;;5016957;28;20337;-78
2022/05/27 16:40:25;;;;;;;;;;;18.40;60.60;;;;;;5026172;28;20065;-79
2022/05/27 16:42:52;;;;;;;10.30;1.80;;;18.30;61.10;;;;;;5009353;28;19909;-81
2022/05/27 16:45:35;;;;;;;8.43;1.42;;;18.10;61.50;;;;;;5007870;28;20041;-82
2022/05/27 16:48:10;;;;;;;6.10;1.88;;;18.00;61.90;;;;;;5003922;28;20462;-82
2022/05/27 16:50:42;;;;;;;7.90;2.00;;;17.90;62.40;;;;;;4994073;28;20029;-83
2022/05/27 16:53:27;;;;;;;10.30;1.80;;;17.80;62.80;;;;;;5030465;28;20042;-82
2022/05/27 16:56:05;;;;;;;4.45;1.55;;;17.80;62.90;;;;;;5027193;28;20052;-83
2022/05/27 17:00:02;;;;;;;4.35;0.80;;;17.70;63.00;;;;;;5028129;28;20037;-82
2022/05/27 17:05:32;;;;;;;7.10;1.00;;;17.70;63.10;;;;;;4987746;28;20050;-83
2022/05/27 17:08:20;;;;;;;9.25;2.33;;;17.70;63.30;;;;;;4972563;28;20104;-83
2022/05/27 17:11:19;;;;;;;5.22;0.88;;;17.80;63.40;;;;;;4995847;28;20033;-81
2022/05/27 17:18:16;;;;;;;6.72;1.02;;;17.90;63.50;;;;;;4980848;28;21182;-80
2022/05/27 17:20:49;;;;;;;5.95;1.10;;;17.70;63.60;;;;;;4945453;28;20045;-80
2022/05/27 17:23:27;;;;;;;4.78;1.05;;;17.60;63.80;;;;;;5004572;28;20394;-79
2022/05/27 17:25:53;;;;;;;7.72;1.40;;;17.60;64.20;;;;;;4974602;28;20034;-80
2022/05/27 17:28:23;;;;;;;5.30;0.85;;;17.60;64.20;;;;;;4973083;28;20069;-80
2022/05/27 17:30:52;;;;;;;7.15;1.20;;;17.50;64.30;;;;;;4998593;28;20033;-80
2022/05/27 17:33:22;;;;;;;;;;;17.40;64.50;;;;;;5002671;28;20509;-80
2022/05/27 17:35:50;;;;;;;9.25;1.55;;;17.30;65.40;;;;;;5003553;28;19913;-80
2022/05/27 17:38:25;;;;;;;8.80;1.13;;;17.30;64.90;;;;;;4994932;28;20042;-86
2022/05/27 17:41:30;;;;;;;3.38;0.60;;;17.20;65.20;;;;;;4995932;28;20051;-82
2022/05/27 17:44:02;;;;;;;8.00;0.90;;;17.10;65.50;;;;;;4993522;28;20068;-81
2022/05/27 17:53:28;;;;;;;6.47;1.60;;;16.80;66.00;;;;;;5009506;28;20067;-83
2022/05/27 17:56:22;;;;;;;7.75;1.70;;;16.60;66.30;;;;;;5011561;28;20488;-84
2022/05/27 17:58:57;;;;;;;6.03;1.15;;;16.40;67.20;;;;;;4967902;28;20501;-84
2022/05/27 18:01:39;;;;;;;5.57;0.80;;;16.30;66.80;;;;;;5023241;28;20480;-88
2022/05/27 18:04:09;;;;;;;6.88;1.70;;;16.20;67.10;;;;;;5024355;28;20030;-83
2022/05/27 18:06:50;;;;;;;5.90;1.10;;;16.10;67.40;;;;;;4992156;28;20082;-89
2022/05/27 18:10:11;;;;;;;6.95;0.70;;;16.10;67.70;;;;;;5009062;28;20044;-87
2022/05/27 18:12:46;;;;;;;7.00;0.80;;;15.90;67.60;;;;;;5010734;28;20041;-84
2022/05/27 18:15:50;;;;;;;2.72;0.60;;;15.80;67.90;;;;;;4935240;28;20062;-85
2022/05/27 18:19:25;;;;;;;;;;;;;;;;;;;;;
2022/05/27 18:23:04;;;;;;;8.60;1.23;;;15.60;68.50;;;;;;5000687;28;20073;-82
2022/05/27 18:26:17;;;;;;;6.38;1.48;;;15.50;69.00;;;;;;5006432;28;20044;-82
2022/05/27 18:29:06;;;;;;;7.53;1.30;;;15.40;69.50;;;;;;5008425;28;20041;-84
2022/05/27 18:31:37;;;;;;;7.18;1.05;;;15.40;69.90;;;;;;5009197;28;20056;-82
2022/05/27 18:34:21;;;;;;;3.75;0.95;;;15.30;70.30;;;;;;5009532;28;20037;-79
2022/05/27 18:36:58;;;;;;;4.75;0.60;;;15.30;70.60;;;;;;5021209;28;20052;-79
2022/05/27 18:39:44;;;;;;;9.55;1.10;;;15.30;70.80;;;;;;5014253;28;20053;-80
2022/05/27 18:42:12;;;;;;;7.50;1.00;;;15.30;71.20;;;;;;4989780;28;20045;-80
2022/05/27 18:44:38;;;;;;;3.65;0.80;;;15.30;71.30;;;;;;5010437;28;20413;-80